Terminal Aerodrome Forecast
Issued by NWS Tampa Bay Area, FL

Home | Current Version | Previous Version | Text Only | Print | Product List | Glossary On
Versions: 1 2 3 4 5 6 7 8 9 10 11 12
000
FTUS42 KTBW 260528
TAFSRQ
TAF
KSRQ 260528Z 2606/2706 12006KT P6SM FEW060
     FM261400 13008KT P6SM SCT035 SCT120
     FM261700 23009KT P6SM SCT040 SCT100
     FM262100 27009KT P6SM SCT045 SCT100
     FM270000 31007KT P6SM SCT050 SCT100
     FM270300 06005KT P6SM SCT050=

USA.gov is the U.S. government's official web portal to all federal, state and local government web resources and services.